createdAt,value
2019-05-28T00:03:00.361Z,13.90
2019-05-28T00:07:09.187Z,13.80
2019-05-28T00:11:17.700Z,13.80
2019-05-28T00:15:26.730Z,13.80
2019-05-28T00:19:35.784Z,13.70
2019-05-28T00:23:44.250Z,13.70
2019-05-28T00:27:52.893Z,13.70
2019-05-28T00:32:01.427Z,13.70
2019-05-28T00:36:10.040Z,13.80
2019-05-28T00:40:18.592Z,13.80
2019-05-28T00:44:27.417Z,13.80
2019-05-28T00:48:35.946Z,13.80
2019-05-28T00:52:44.782Z,13.70
2019-05-28T00:56:53.736Z,13.70
2019-05-28T01:01:02.755Z,13.70
2019-05-28T01:05:11.401Z,13.80
2019-05-28T01:09:20.504Z,13.80
2019-05-28T01:13:29.301Z,13.90
2019-05-28T01:17:38.463Z,14.00
2019-05-28T01:21:47.149Z,14.10
2019-05-28T01:25:55.958Z,14.10
2019-05-28T01:30:06.791Z,14.10
2019-05-28T01:34:17.231Z,14.00
2019-05-28T01:38:26.487Z,14.00
2019-05-28T01:42:37.171Z,14.10
2019-05-28T01:46:45.815Z,14.10
2019-05-28T01:50:55.591Z,14.20
2019-05-28T01:55:06.801Z,14.20
2019-05-28T01:59:16.322Z,14.30
2019-05-28T02:03:26.247Z,14.30
2019-05-28T02:07:34.799Z,14.40
2019-05-28T02:11:44.132Z,14.40
2019-05-28T02:15:52.567Z,14.40
2019-05-28T02:20:01.856Z,14.40
2019-05-28T02:24:10.386Z,14.50
2019-05-28T02:28:19.018Z,14.50
2019-05-28T02:32:28.853Z,14.50
2019-05-28T02:36:37.515Z,14.50
2019-05-28T02:40:46.139Z,14.50
2019-05-28T02:44:54.951Z,14.50
2019-05-28T02:49:03.611Z,14.50
2019-05-28T02:53:12.267Z,14.50
2019-05-28T02:57:20.821Z,14.50
2019-05-28T03:01:42.959Z,14.50
2019-05-28T03:05:40.234Z,14.60
2019-05-28T03:09:48.880Z,14.50
2019-05-28T03:13:58.516Z,14.50
2019-05-28T03:18:08.672Z,14.50
2019-05-28T03:22:17.314Z,14.50
2019-05-28T03:26:26.033Z,14.50
2019-05-28T03:30:34.715Z,14.50
2019-05-28T03:34:43.464Z,14.60
2019-05-28T03:38:52.303Z,14.60
2019-05-28T03:43:00.904Z,14.70
2019-05-28T03:47:10.034Z,14.80
2019-05-28T03:51:22.520Z,14.90
2019-05-28T03:55:32.608Z,14.90
2019-05-28T03:59:42.101Z,15.00
2019-05-28T04:03:51.925Z,15.00
2019-05-28T04:08:00.929Z,15.10
2019-05-28T04:12:09.617Z,15.10
2019-05-28T04:16:18.312Z,15.20
2019-05-28T04:20:27.185Z,15.20
2019-05-28T04:24:35.890Z,15.30
2019-05-28T04:28:45.945Z,15.30
2019-05-28T04:32:55.412Z,15.30
2019-05-28T04:37:06.571Z,15.40
2019-05-28T04:41:15.257Z,15.40
2019-05-28T04:45:24.034Z,15.40
2019-05-28T04:49:32.706Z,15.50
2019-05-28T04:53:42.324Z,15.70
2019-05-28T04:57:50.916Z,15.70
2019-05-28T05:01:59.372Z,15.90
2019-05-28T05:06:07.768Z,16.10
2019-05-28T05:10:19.027Z,16.40
2019-05-28T05:14:26.502Z,16.70
2019-05-28T05:18:36.390Z,16.90
2019-05-28T05:22:45.813Z,17.10
2019-05-28T05:26:55.778Z,17.20
2019-05-28T05:31:04.292Z,17.40
2019-05-28T05:35:12.825Z,17.60
2019-05-28T05:39:21.758Z,17.50
2019-05-28T05:43:30.292Z,17.50
2019-05-28T05:47:38.752Z,17.40
2019-05-28T05:51:47.313Z,17.40
2019-05-28T05:55:55.947Z,17.40
2019-05-28T06:00:04.344Z,17.50
2019-05-28T06:04:14.054Z,17.50
2019-05-28T06:12:51.731Z,17.50
2019-05-28T06:17:00.157Z,17.60
2019-05-28T06:21:15.030Z,17.50
2019-05-28T06:25:20.868Z,17.50
2019-05-28T06:29:29.532Z,17.40
2019-05-28T06:33:38.167Z,17.20
2019-05-28T06:37:46.655Z,17.10
2019-05-28T06:41:55.140Z,17.00
2019-05-28T06:46:03.676Z,16.90
2019-05-28T06:50:13.325Z,16.80
2019-05-28T06:54:21.785Z,16.80
2019-05-28T06:58:39.345Z,16.80
2019-05-28T07:02:40.566Z,16.70
2019-05-28T07:06:49.211Z,16.60
2019-05-28T07:10:58.635Z,16.60
2019-05-28T07:15:07.666Z,16.50
2019-05-28T07:19:24.532Z,16.50
2019-05-28T07:23:26.468Z,16.60
2019-05-28T07:27:35.230Z,16.50
2019-05-28T07:31:43.696Z,16.50
2019-05-28T07:35:52.446Z,16.50
2019-05-28T07:40:02.870Z,16.50
2019-05-28T07:44:11.723Z,16.50
2019-05-28T07:48:20.162Z,16.50
2019-05-28T07:52:28.653Z,16.50
2019-05-28T07:56:38.206Z,16.40
2019-05-28T08:00:45.402Z,16.40
2019-05-28T08:04:54.087Z,16.40
2019-05-28T08:09:04.280Z,16.50
2019-05-28T08:13:12.788Z,16.50
2019-05-28T08:17:21.310Z,16.50
2019-05-28T08:21:32.337Z,16.50
2019-05-28T08:25:46.859Z,16.50
2019-05-28T08:29:49.064Z,16.50
2019-05-28T08:33:57.539Z,16.50
2019-05-28T08:38:05.999Z,16.50
2019-05-28T08:42:14.359Z,16.60
2019-05-28T08:46:22.729Z,16.90
2019-05-28T08:50:35.049Z,17.20
2019-05-28T08:54:42.419Z,17.50
2019-05-28T08:58:53.331Z,17.70
2019-05-28T09:03:05.040Z,18.00
2019-05-28T09:07:10.828Z,18.10
2019-05-28T09:11:19.364Z,18.20
2019-05-28T09:15:27.763Z,18.20
2019-05-28T09:19:37.283Z,18.40
2019-05-28T09:23:45.872Z,18.50
2019-05-28T09:27:54.647Z,18.50
2019-05-28T09:32:03.685Z,18.30
2019-05-28T09:36:14.796Z,18.20
2019-05-28T09:40:24.405Z,18.10
2019-05-28T09:44:32.796Z,18.10
2019-05-28T09:48:41.726Z,18.30
2019-05-28T09:52:54.939Z,18.80
2019-05-28T09:57:00.355Z,19.10
2019-05-28T10:01:10.387Z,19.30
2019-05-28T10:05:22.625Z,19.50
2019-05-28T10:09:30.998Z,19.60
2019-05-28T10:13:41.613Z,19.80
2019-05-28T10:17:50.364Z,20.10
2019-05-28T10:21:59.232Z,20.50
2019-05-28T10:26:07.635Z,20.70
2019-05-28T10:30:16.411Z,20.80
2019-05-28T10:34:25.398Z,20.80
2019-05-28T10:38:33.901Z,21.00
2019-05-28T10:42:44.972Z,21.30
2019-05-28T10:46:53.734Z,21.50
2019-05-28T10:51:02.186Z,21.70
2019-05-28T10:55:15.658Z,21.60
2019-05-28T10:59:25.713Z,21.60
2019-05-28T11:03:36.004Z,21.60
2019-05-28T11:07:45.963Z,21.70
2019-05-28T11:11:56.703Z,22.00
2019-05-28T11:16:05.532Z,22.20
2019-05-28T11:20:15.915Z,22.20
2019-05-28T11:24:24.853Z,22.30
2019-05-28T11:28:33.283Z,22.10
2019-05-28T11:32:42.068Z,21.90
2019-05-28T11:36:50.657Z,21.80
2019-05-28T11:40:59.175Z,21.70
2019-05-28T11:45:25.540Z,21.50
2019-05-28T11:49:30.091Z,21.20
2019-05-28T11:53:38.539Z,20.90
2019-05-28T11:57:47.044Z,20.60
2019-05-28T12:01:55.543Z,20.50
2019-05-28T12:06:04.035Z,20.40
2019-05-28T12:10:14.664Z,20.30
2019-05-28T12:14:23.917Z,20.30
2019-05-28T12:18:35.611Z,20.30
2019-05-28T12:22:47.247Z,20.40
2019-05-28T12:26:57.986Z,20.40
2019-05-28T12:31:06.706Z,20.40
2019-05-28T12:35:27.235Z,20.30
2019-05-28T12:39:30.524Z,20.40
2019-05-28T12:43:39.043Z,20.50
2019-05-28T12:48:07.385Z,20.40
2019-05-28T12:51:58.110Z,20.00
2019-05-28T12:56:06.622Z,19.40
2019-05-28T13:00:15.550Z,19.20
2019-05-28T13:04:24.063Z,19.20
2019-05-28T13:08:32.440Z,19.20
2019-05-28T13:12:41.298Z,19.20
2019-05-28T13:16:49.992Z,19.30
2019-05-28T13:20:58.788Z,19.40
2019-05-28T13:25:08.107Z,19.40
2019-05-28T13:29:17.579Z,19.40
2019-05-28T13:33:26.384Z,19.40
2019-05-28T13:37:34.772Z,19.30
2019-05-28T13:41:43.340Z,19.30
2019-05-28T13:45:51.967Z,19.30
2019-05-28T13:50:00.459Z,19.50
2019-05-28T13:54:09.654Z,19.60
2019-05-28T13:58:20.222Z,19.60
2019-05-28T14:02:28.809Z,19.40
2019-05-28T14:06:43.113Z,19.30
2019-05-28T14:10:47.586Z,19.30
2019-05-28T14:15:06.779Z,19.30
2019-05-28T14:19:17.731Z,19.30
2019-05-28T14:23:26.397Z,19.30
2019-05-28T14:27:34.959Z,19.20
2019-05-28T14:31:43.416Z,19.20
2019-05-28T14:35:51.872Z,19.10
2019-05-28T14:40:00.322Z,19.10
2019-05-28T14:44:08.959Z,19.00
2019-05-28T14:48:17.422Z,18.80
2019-05-28T14:52:25.901Z,18.70
2019-05-28T14:56:36.844Z,18.60
2019-05-28T15:00:45.666Z,18.50
2019-05-28T15:04:56.827Z,18.40
